Time;durP1;ratioP1;P1;durP2;ratioP2;P2;SDS_P1;SDS_P2;PMS_P1;PMS_P2;Temp;Humidity;BMP_temperature;BMP_pressure;BME280_temperature;BME280_humidity;BME280_pressure;Samples;Min_cycle;Max_cycle;Signal;HPM_P1;HPM_P2
2022/08/27 00:01:48;;;;;;;6.45;0.28;;;;;;;15.88;50.94;101619.13;4985884;28;21011;-77
2022/08/27 00:04:14;;;;;;;3.33;0.20;;;;;;;15.88;50.52;101605.94;5000022;28;20021;-77
2022/08/27 00:06:39;;;;;;;5.40;0.50;;;;;;;15.74;50.73;101605.81;4985960;28;20966;-77
2022/08/27 00:09:05;;;;;;;1.85;0.20;;;;;;;15.73;50.55;101607.59;4983401;28;20077;-76
2022/08/27 00:11:31;;;;;;;3.65;0.40;;;;;;;15.74;50.41;101603.16;4991888;28;20519;-79
2022/08/27 00:13:57;;;;;;;1.92;0.25;;;;;;;15.81;50.16;101599.28;5003193;28;20554;-77
2022/08/27 00:16:23;;;;;;;3.83;0.20;;;;;;;15.77;49.83;101603.00;5010707;28;20095;-76
2022/08/27 00:18:48;;;;;;;1.20;0.10;;;;;;;15.82;49.81;101598.38;4986595;28;20413;-78
2022/08/27 00:21:15;;;;;;;3.40;0.20;;;;;;;15.84;49.69;101596.53;4983367;28;20041;-78
2022/08/27 00:23:41;;;;;;;6.03;0.32;;;;;;;15.88;49.41;101592.75;4984489;28;20471;-77
2022/08/27 00:26:08;;;;;;;4.68;0.30;;;;;;;15.98;48.90;101601.91;4987650;28;20035;-76
2022/08/27 00:28:34;;;;;;;5.57;0.63;;;;;;;15.99;49.11;101592.22;4992335;28;20043;-77
2022/08/27 00:31:00;;;;;;;5.22;0.47;;;;;;;15.98;48.84;101588.75;5002530;28;20032;-79
2022/08/27 00:33:26;;;;;;;0.60;0.17;;;;;;;15.98;49.13;101578.19;4982715;28;20057;-78
2022/08/27 00:35:52;;;;;;;3.42;0.30;;;;;;;15.98;49.16;101578.19;4983811;28;20453;-77
2022/08/27 00:38:20;;;;;;;2.05;0.30;;;;;;;16.00;48.94;101575.53;4984287;28;20053;-76
2022/08/27 00:40:46;;;;;;;2.95;0.20;;;;;;;15.83;49.38;101573.72;4991188;28;20022;-77
2022/08/27 00:43:12;;;;;;;4.30;0.20;;;;;;;15.94;49.27;101571.38;4987040;28;20042;-77
2022/08/27 00:45:43;;;;;;;6.50;0.22;;;;;;;15.88;49.53;101571.69;4983264;28;20436;-79
2022/08/27 00:48:13;;;;;;;4.90;0.47;;;;;;;15.93;49.49;101569.69;5000028;28;20069;-78
2022/08/27 00:50:45;;;;;;;4.22;0.28;;;;;;;15.98;49.67;101572.94;5002148;28;20039;-78
2022/08/27 00:53:17;;;;;;;2.85;0.38;;;;;;;15.95;49.39;101570.47;4990108;28;20509;-77
2022/08/27 00:55:48;;;;;;;4.63;0.10;;;;;;;16.04;49.32;101570.91;4975246;28;20542;-79
2022/08/27 00:58:17;;;;;;;2.03;0.35;;;;;;;16.02;49.84;101575.41;5000417;28;20042;-77
2022/08/27 01:00:45;;;;;;;4.03;0.20;;;;;;;15.99;49.99;101572.00;5009113;28;20045;-77
2022/08/27 01:03:11;;;;;;;0.55;0.20;;;;;;;16.08;49.68;101580.38;4949333;28;20112;-77
2022/08/27 01:05:38;;;;;;;2.25;0.40;;;;;;;16.03;49.75;101580.63;4982266;28;20025;-76
2022/08/27 01:08:13;;;;;;;1.17;0.15;;;;;;;16.11;49.90;101582.88;4981726;28;20038;-77
2022/08/27 01:10:40;;;;;;;6.70;0.50;;;;;;;16.16;49.60;101583.47;5014716;28;20595;-75
2022/08/27 01:13:11;;;;;;;2.13;0.55;;;;;;;16.06;50.24;101579.59;4998948;28;20100;-77
2022/08/27 01:15:38;;;;;;;7.45;0.40;;;;;;;16.16;49.77;101586.13;4984704;28;20034;-78
2022/08/27 01:18:05;;;;;;;1.65;0.30;;;;;;;16.15;49.93;101587.03;4980901;28;20477;-78
2022/08/27 01:20:49;;;;;;;3.30;0.20;;;;;;;16.25;49.47;101580.34;5003768;28;20038;-75
2022/08/27 01:23:37;;;;;;;2.50;0.22;;;;;;;16.11;50.41;101580.25;4984983;28;20041;-78
2022/08/27 01:26:05;;;;;;;3.33;0.88;;;;;;;16.27;49.92;101575.84;5018119;28;20589;-77
2022/08/27 01:28:33;;;;;;;7.15;0.30;;;;;;;16.26;49.90;101575.91;4989938;28;20495;-76
2022/08/27 01:30:58;;;;;;;3.58;0.25;;;;;;;16.30;49.92;101574.84;5006465;28;20026;-77
2022/08/27 01:33:24;;;;;;;2.88;0.30;;;;;;;15.85;50.76;101581.53;4990502;28;20484;-78
2022/08/27 01:35:51;;;;;;;1.88;0.63;;;;;;;16.11;50.51;101577.59;4989760;28;20113;-79
2022/08/27 01:38:18;;;;;;;5.50;0.35;;;;;;;16.18;50.13;101582.47;5001544;28;20121;-76
2022/08/27 01:40:44;;;;;;;2.15;0.77;;;;;;;16.12;50.24;101577.50;4996864;28;20119;-76
2022/08/27 01:43:10;;;;;;;4.57;0.30;;;;;;;16.00;50.68;101571.09;5002253;28;20045;-76
2022/08/27 01:45:38;;;;;;;3.63;0.20;;;;;;;16.08;50.84;101575.09;4979217;28;20048;-77
2022/08/27 01:48:06;;;;;;;3.78;0.50;;;;;;;16.11;50.74;101574.97;4975359;28;20049;-77
2022/08/27 01:50:36;;;;;;;3.95;0.40;;;;;;;16.23;50.76;101581.38;4990876;28;20036;-77
2022/08/27 01:53:05;;;;;;;4.18;0.80;;;;;;;16.05;51.04;101583.19;4988262;28;20131;-77
2022/08/27 01:55:31;;;;;;;4.97;0.57;;;;;;;15.93;51.03;101585.50;4999866;28;20045;-79
2022/08/27 01:57:56;;;;;;;2.38;0.40;;;;;;;16.16;50.60;101588.75;4986429;28;20088;-77
2022/08/27 02:00:28;;;;;;;2.38;0.28;;;;;;;16.25;50.53;101590.91;4988622;28;20530;-75
2022/08/27 02:02:55;;;;;;;4.25;0.22;;;;;;;16.35;49.83;101578.94;5004884;28;20494;-77
2022/08/27 02:05:21;;;;;;;6.50;0.38;;;;;;;16.20;50.05;101592.94;4991847;28;20026;-78
2022/08/27 02:07:47;;;;;;;6.95;0.40;;;;;;;16.31;49.87;101590.59;4989387;28;20056;-77
2022/08/27 02:10:16;;;;;;;5.13;0.57;;;;;;;16.06;50.24;101590.16;5007606;28;20034;-78
2022/08/27 02:12:42;;;;;;;7.05;0.40;;;;;;;16.28;49.81;101590.72;5001260;28;20070;-76
2022/08/27 02:15:08;;;;;;;7.05;0.70;;;;;;;16.19;50.03;101585.94;5000992;28;20083;-79
2022/08/27 02:17:34;;;;;;;6.25;0.50;;;;;;;16.19;49.99;101591.22;4987959;28;20738;-77
2022/08/27 02:20:00;;;;;;;1.75;0.25;;;;;;;15.98;50.31;101596.66;4984574;28;20110;-75
2022/08/27 02:22:26;;;;;;;2.15;0.43;;;;;;;16.04;50.27;101594.66;4986846;28;20065;-78
2022/08/27 02:24:52;;;;;;;7.75;0.50;;;;;;;16.14;49.77;101590.63;5006215;28;20046;-78
2022/08/27 02:27:19;;;;;;;2.92;0.50;;;;;;;16.16;49.49;101596.66;4985667;28;20052;-77
2022/08/27 02:29:46;;;;;;;4.82;0.50;;;;;;;15.91;50.07;101597.91;4988148;28;20128;-79
2022/08/27 02:32:13;;;;;;;6.95;0.43;;;;;;;16.06;49.57;101595.44;4984303;28;20407;-76
2022/08/27 02:34:39;;;;;;;2.33;0.80;;;;;;;16.10;49.65;101591.69;5007367;28;20037;-77
2022/08/27 02:37:06;;;;;;;4.43;0.45;;;;;;;16.11;49.25;101593.44;4981698;28;20048;-76
2022/08/27 02:39:32;;;;;;;7.10;0.20;;;;;;;16.08;49.06;101589.13;4993596;28;20030;-77
2022/08/27 02:41:58;;;;;;;2.17;0.20;;;;;;;16.03;49.68;101590.31;4999847;28;20147;-77
2022/08/27 02:44:23;;;;;;;9.38;0.60;;;;;;;16.01;49.12;101595.66;5005750;28;20437;-77
2022/08/27 02:46:49;;;;;;;5.65;0.38;;;;;;;16.13;48.70;101586.25;4978680;28;20041;-77
2022/08/27 02:49:14;;;;;;;3.90;1.02;;;;;;;16.07;48.77;101591.88;4985726;28;20053;-76
2022/08/27 02:51:41;;;;;;;3.22;0.40;;;;;;;16.05;49.04;101599.00;5001106;28;20064;-76
2022/08/27 02:54:06;;;;;;;2.13;0.82;;;;;;;15.98;48.93;101594.00;5002560;28;20128;-76
2022/08/27 02:56:32;;;;;;;3.38;0.20;;;;;;;16.04;48.53;101595.53;5003337;28;20021;-76
2022/08/27 02:59:00;;;;;;;4.20;0.57;;;;;;;15.92;48.92;101594.31;4981987;28;20050;-76
2022/08/27 03:01:26;;;;;;;4.68;0.15;;;;;;;15.90;48.75;101588.28;4996265;28;20108;-76
2022/08/27 03:03:52;;;;;;;3.70;0.47;;;;;;;15.91;48.77;101587.34;5001684;28;20039;-77
2022/08/27 03:06:17;;;;;;;7.18;0.55;;;;;;;15.89;48.60;101594.50;4992633;28;20030;-77
2022/08/27 03:08:43;;;;;;;2.25;0.20;;;;;;;15.92;48.59;101586.41;5001315;28;20084;-76
2022/08/27 03:11:09;;;;;;;5.65;0.35;;;;;;;15.95;48.43;101588.03;4999771;28;20037;-77
2022/08/27 03:13:36;;;;;;;2.28;0.28;;;;;;;15.87;48.45;101583.16;5004186;28;20066;-78
2022/08/27 03:16:03;;;;;;;6.53;0.35;;;;;;;15.82;48.82;101582.56;4994880;28;20029;-78
2022/08/27 03:18:28;;;;;;;1.88;0.40;;;;;;;15.76;48.90;101578.44;5005897;28;20550;-77
2022/08/27 03:20:55;;;;;;;1.80;0.30;;;;;;;15.68;48.92;101577.97;4990108;28;20038;-78
2022/08/27 03:23:23;;;;;;;2.33;0.40;;;;;;;15.58;49.43;101588.13;5006171;28;20045;-78
2022/08/27 03:25:55;;;;;;;1.35;0.20;;;;;;;15.54;49.36;101583.94;4982547;28;20033;-77
2022/08/27 03:28:33;;;;;;;5.18;0.40;;;;;;;15.54;49.51;101583.94;4982751;28;20037;-77
2022/08/27 03:31:02;;;;;;;6.55;0.45;;;;;;;15.57;49.60;101589.06;4980587;28;20056;-77
2022/08/27 03:33:30;;;;;;;2.97;0.22;;;;;;;15.58;50.02;101587.28;5002137;28;20182;-78
2022/08/27 03:35:55;;;;;;;3.67;0.70;;;;;;;15.67;49.54;101596.50;5003090;28;20032;-77
2022/08/27 03:38:21;;;;;;;2.50;0.30;;;;;;;15.64;49.96;101588.75;4986905;28;20042;-78
2022/08/27 03:40:47;;;;;;;4.85;0.30;;;;;;;15.69;50.12;101589.38;4992902;28;20484;-77
2022/08/27 03:43:15;;;;;;;3.45;0.50;;;;;;;15.69;50.54;101581.47;4984034;28;20057;-77
2022/08/27 03:45:42;;;;;;;6.40;0.45;;;;;;;15.62;50.87;101585.31;5000043;28;20038;-76
2022/08/27 03:48:08;;;;;;;3.80;0.50;;;;;;;15.83;50.04;101584.25;5014940;28;20061;-77
2022/08/27 03:50:36;;;;;;;7.95;0.88;;;;;;;15.93;49.84;101585.50;4986262;28;20037;-76
2022/08/27 03:53:02;;;;;;;3.05;0.32;;;;;;;15.91;50.08;101581.25;4998702;28;20103;-78
2022/08/27 03:55:27;;;;;;;5.55;0.85;;;;;;;15.91;49.87;101587.34;4996025;28;20317;-78
2022/08/27 03:57:53;;;;;;;5.15;0.98;;;;;;;16.05;49.03;101584.03;4994976;28;20121;-77
2022/08/27 04:00:19;;;;;;;5.82;0.32;;;;;;;15.99;49.09;101590.47;4986140;28;20026;-79
2022/08/27 04:02:44;;;;;;;6.75;0.52;;;;;;;16.02;48.81;101585.97;4983934;28;20120;-77
2022/08/27 04:05:12;;;;;;;5.85;0.68;;;;;;;15.96;48.78;101590.59;4983026;28;20037;-76
2022/08/27 04:07:38;;;;;;;8.57;0.70;;;;;;;15.97;48.36;101587.06;5013479;28;20048;-76
2022/08/27 04:10:05;;;;;;;6.97;0.73;;;;;;;15.98;48.15;101587.91;5010841;28;20030;-77
2022/08/27 04:12:31;;;;;;;5.15;0.45;;;;;;;15.92;48.48;101591.69;4988342;28;20434;-78
2022/08/27 04:14:57;;;;;;;5.22;0.43;;;;;;;15.85;47.87;101587.66;4979631;28;20040;-79
2022/08/27 04:17:22;;;;;;;3.25;0.30;;;;;;;15.99;47.60;101590.47;4986123;28;20030;-78
2022/08/27 04:19:51;;;;;;;2.83;0.73;;;;;;;16.08;47.35;101583.88;4987001;28;20037;-77
2022/08/27 04:22:17;;;;;;;5.22;0.30;;;;;;;16.05;47.08;101578.75;4983941;28;20037;-77
2022/08/27 04:24:43;;;;;;;3.50;0.40;;;;;;;16.16;47.08;101586.13;4986995;28;20034;-78
2022/08/27 04:27:09;;;;;;;5.35;0.20;;;;;;;15.98;47.32;101580.84;4998366;28;20049;-77
2022/08/27 04:29:35;;;;;;;7.13;0.60;;;;;;;15.91;47.31;101578.59;5005547;28;20116;-77
2022/08/27 04:32:01;;;;;;;1.60;0.40;;;;;;;16.02;46.92;101567.50;4983299;28;20085;-77
2022/08/27 04:34:27;;;;;;;8.68;0.60;;;;;;;16.05;46.85;101583.19;4986951;28;20113;-76
2022/08/27 04:36:56;;;;;;;2.92;0.30;;;;;;;15.97;46.90;101581.78;4997550;28;20470;-76
2022/08/27 04:39:22;;;;;;;1.92;0.45;;;;;;;15.91;46.64;101570.69;4992499;28;20419;-75
2022/08/27 04:41:53;;;;;;;4.03;0.68;;;;;;;15.90;46.22;101569.81;4983249;28;20042;-75
2022/08/27 04:44:18;;;;;;;2.17;0.28;;;;;;;15.66;47.12;101566.69;5007813;28;20128;-76
2022/08/27 04:46:46;;;;;;;7.60;0.63;;;;;;;15.70;46.88;101562.94;4994137;28;20551;-77
2022/08/27 04:49:14;;;;;;;6.25;0.40;;;;;;;15.74;46.74;101574.19;5005268;28;20038;-76
2022/08/27 04:51:40;;;;;;;3.53;0.35;;;;;;;15.85;46.32;101571.00;5000258;28;20048;-74
2022/08/27 04:54:07;;;;;;;3.38;0.20;;;;;;;15.78;46.56;101570.47;5008877;28;20034;-75
2022/08/27 04:56:33;;;;;;;6.78;0.90;;;;;;;15.88;46.68;101578.75;4991884;28;20037;-77
2022/08/27 04:59:02;;;;;;;7.72;0.60;;;;;;;15.87;46.61;101583.16;5012356;28;20194;-76
2022/08/27 05:01:29;;;;;;;7.28;0.85;;;;;;;15.99;46.54;101585.19;4990135;28;20029;-76
2022/08/27 05:03:57;;;;;;;5.95;0.40;;;;;;;15.89;46.85;101578.66;4993968;28;20080;-78
2022/08/27 05:06:23;;;;;;;3.97;0.60;;;;;;;16.00;46.59;101581.63;5020890;28;20044;-79
2022/08/27 05:08:50;;;;;;;4.07;0.32;;;;;;;16.00;47.14;101579.00;5005991;28;20510;-76
2022/08/27 05:11:18;;;;;;;7.68;1.23;;;;;;;16.01;46.73;101574.56;5005663;28;20057;-78
2022/08/27 05:13:44;;;;;;;4.57;0.40;;;;;;;15.96;47.04;101574.78;5010998;28;20042;-77
2022/08/27 05:16:14;;;;;;;7.03;0.30;;;;;;;15.78;47.17;101576.59;5011515;28;20748;-77
2022/08/27 05:18:41;;;;;;;2.35;0.20;;;;;;;15.84;46.95;101587.72;5005195;28;20496;-77
2022/08/27 05:21:07;;;;;;;2.50;0.40;;;;;;;15.62;47.74;101590.59;4994458;28;20285;-76
2022/08/27 05:23:34;;;;;;;6.25;0.80;;;;;;;15.78;47.27;101597.66;5008099;28;20045;-76
2022/08/27 05:26:00;;;;;;;2.65;0.43;;;;;;;15.85;46.99;101598.22;4995784;28;20044;-75
2022/08/27 05:28:28;;;;;;;10.48;0.73;;;;;;;16.04;46.51;101592.88;4988701;28;20038;-77
2022/08/27 05:31:02;;;;;;;7.00;0.50;;;;;;;16.09;46.49;101590.84;5000761;28;20133;-77
2022/08/27 05:33:29;;;;;;;2.97;0.28;;;;;;;16.23;46.14;101587.50;5011535;28;20045;-79
2022/08/27 05:35:56;;;;;;;13.20;0.95;;;;;;;16.27;46.05;101578.50;4999177;28;20708;-78
2022/08/27 05:38:26;;;;;;;6.85;0.57;;;;;;;16.20;46.32;101588.50;5009906;28;20480;-80
2022/08/27 05:41:10;;;;;;;3.80;0.45;;;;;;;16.31;46.37;101585.31;4994086;28;20385;-78
2022/08/27 05:43:37;;;;;;;6.30;0.70;;;;;;;16.28;46.50;101596.00;4987528;28;20781;-77
2022/08/27 05:46:05;;;;;;;4.97;0.32;;;;;;;16.48;46.26;101591.47;4986870;28;20030;-76
2022/08/27 05:48:33;;;;;;;5.88;0.68;;;;;;;16.56;46.15;101589.28;4989939;28;20037;-76
2022/08/27 05:51:10;;;;;;;7.32;0.55;;;;;;;16.77;45.66;101588.13;4995980;28;20404;-78
2022/08/27 05:53:36;;;;;;;6.10;0.45;;;;;;;16.96;45.06;101597.69;4986266;28;20042;-78
2022/08/27 05:56:02;;;;;;;8.07;0.82;;;;;;;16.96;44.78;101592.41;5016101;28;20061;-77
2022/08/27 06:01:12;;;;;;;5.57;0.55;;;;;;;17.03;43.47;101596.38;5016977;28;20504;-78
2022/08/27 06:03:39;;;;;;;5.97;0.40;;;;;;;16.77;43.75;101593.38;4986579;28;20073;-76
2022/08/27 06:06:09;;;;;;;10.13;0.30;;;;;;;16.86;43.21;101591.19;4986228;28;20034;-76
2022/08/27 06:08:36;;;;;;;2.65;0.25;;;;;;;17.06;43.35;101590.94;4989090;28;20065;-78
2022/08/27 06:11:04;;;;;;;5.15;1.17;;;;;;;17.20;42.92;101591.03;4987391;28;20479;-77
2022/08/27 06:13:32;;;;;;;14.10;1.23;;;;;;;17.41;42.60;101588.91;5003617;28;20034;-77
2022/08/27 06:16:06;;;;;;;11.38;0.50;;;;;;;17.29;42.73;101583.47;5012838;28;20033;-76
2022/08/27 06:18:33;;;;;;;3.80;0.20;;;;;;;17.51;42.74;101588.41;5000410;28;20413;-74
2022/08/27 06:20:59;;;;;;;4.70;0.20;;;;;;;17.85;41.45;101597.88;5005237;28;20040;-77
2022/08/27 06:23:26;;;;;;;7.45;0.52;;;;;;;17.42;41.94;101600.34;5001020;28;20396;-78
2022/08/27 06:25:52;;;;;;;3.28;0.30;;;;;;;17.51;41.44;101601.63;5004365;28;20037;-78
2022/08/27 06:28:22;;;;;;;1.95;0.20;;;;;;;17.92;41.04;101604.50;4985822;28;20404;-75
2022/08/27 06:30:48;;;;;;;3.35;0.65;;;;;;;18.01;40.62;101603.94;4980202;28;20497;-77
2022/08/27 06:33:14;;;;;;;5.55;0.45;;;;;;;17.97;40.31;101606.88;5004448;28;20680;-78
2022/08/27 06:35:40;;;;;;;4.18;0.20;;;;;;;17.72;41.46;101613.59;4990991;28;20017;-77
2022/08/27 06:38:06;;;;;;;6.15;0.55;;;;;;;17.61;41.76;101614.22;5007284;28;20029;-78
2022/08/27 06:40:32;;;;;;;8.20;0.38;;;;;;;17.82;41.71;101621.84;4986291;28;20045;-78
2022/08/27 06:42:59;;;;;;;2.90;0.47;;;;;;;17.98;41.37;101619.13;4981254;28;20049;-75
2022/08/27 06:45:25;;;;;;;5.68;0.80;;;;;;;18.01;40.88;101619.81;4989357;28;20507;-78
2022/08/27 06:47:51;;;;;;;7.45;0.50;;;;;;;18.13;40.91;101620.84;4988136;28;20042;-79
2022/08/27 06:50:19;;;;;;;4.82;0.40;;;;;;;17.82;41.00;101617.38;4990805;28;20034;-77
2022/08/27 06:52:46;;;;;;;2.80;0.70;;;;;;;17.67;41.02;101614.81;4999115;28;20056;-77
2022/08/27 06:55:12;;;;;;;7.10;0.57;;;;;;;17.48;41.20;101626.44;4996762;28;20079;-77
2022/08/27 06:57:37;;;;;;;2.65;0.35;;;;;;;17.49;41.07;101622.84;4988995;28;20875;-78
2022/08/27 07:00:05;;;;;;;6.25;0.60;;;;;;;17.74;40.75;101624.94;4985818;28;20415;-77
2022/08/27 07:02:31;;;;;;;2.92;0.28;;;;;;;17.60;41.41;101631.03;5004118;28;20108;-76
2022/08/27 07:04:56;;;;;;;1.70;0.20;;;;;;;17.74;41.67;101627.59;5002247;28;20065;-77
2022/08/27 07:07:22;;;;;;;7.25;0.85;;;;;;;17.49;42.11;101633.41;4991343;28;20042;-75
2022/08/27 07:09:48;;;;;;;6.85;0.50;;;;;;;17.85;41.20;101626.97;5001329;28;20144;-78
2022/08/27 07:12:14;;;;;;;4.15;0.60;;;;;;;18.14;41.29;101635.81;4984291;28;20073;-78
2022/08/27 07:14:39;;;;;;;5.82;1.08;;;;;;;18.48;40.04;101639.91;4988415;28;20042;-77
2022/08/27 07:17:07;;;;;;;5.50;0.50;;;;;;;18.59;39.80;101635.75;4984851;28;20048;-77
2022/08/27 07:19:37;;;;;;;4.00;0.80;;;;;;;18.64;39.08;101631.03;4990058;28;20112;-78
2022/08/27 07:22:03;;;;;;;5.63;0.47;;;;;;;17.86;39.98;101639.22;4962190;28;20069;-78
2022/08/27 07:24:29;;;;;;;4.50;0.50;;;;;;;17.69;40.22;101642.00;5006272;28;20038;-78
2022/08/27 07:26:54;;;;;;;9.65;0.30;;;;;;;17.86;38.69;101641.88;4983543;28;20045;-79
2022/08/27 07:29:20;;;;;;;4.13;0.20;;;;;;;17.69;39.41;101650.78;4996358;28;20427;-77
2022/08/27 07:31:46;;;;;;;5.88;0.68;;;;;;;17.77;39.23;101650.34;4985632;28;20044;-77
2022/08/27 07:34:11;;;;;;;7.97;0.20;;;;;;;18.29;38.62;101649.06;4988628;28;20033;-77
2022/08/27 07:36:37;;;;;;;3.40;0.30;;;;;;;19.49;36.56;101647.69;4989414;28;20061;-77
2022/08/27 07:39:03;;;;;;;8.38;0.55;;;;;;;19.22;37.05;101645.88;4985583;28;20048;-77
2022/08/27 07:41:30;;;;;;;1.13;0.28;;;;;;;18.92;36.85;101648.72;5003321;28;20033;-77
2022/08/27 07:46:41;;;;;;;6.47;0.47;;;;;;;18.64;37.75;101654.84;5002225;28;20037;-77
2022/08/27 07:49:06;;;;;;;14.65;0.52;;;;;;;18.73;37.76;101664.03;5018368;28;20033;-77
2022/08/27 07:51:36;;;;;;;5.55;0.88;;;;;;;18.80;37.91;101660.88;4986457;28;20061;-78
2022/08/27 07:54:02;;;;;;;6.15;0.75;;;;;;;18.41;38.86;101658.91;5001369;28;20131;-77
2022/08/27 07:56:28;;;;;;;4.00;0.60;;;;;;;19.40;37.21;101664.19;4985843;28;20029;-78
2022/08/27 07:58:53;;;;;;;9.93;1.08;;;;;;;19.76;36.28;101665.41;4984102;28;20047;-78
2022/08/27 08:01:19;;;;;;;8.23;0.40;;;;;;;19.37;36.97;101664.38;4985628;28;20605;-78
2022/08/27 08:03:45;;;;;;;8.35;0.75;;;;;;;19.20;37.12;101679.59;4986116;28;20048;-77
2022/08/27 08:06:15;;;;;;;1.60;0.40;;;;;;;19.42;35.93;101678.22;5003352;28;20234;-76
2022/08/27 08:08:41;;;;;;;7.95;0.52;;;;;;;20.47;33.11;101675.59;5000936;28;20073;-79
2022/08/27 08:11:12;;;;;;;5.28;0.88;;;;;;;19.81;35.03;101673.91;4976300;28;20044;-77
2022/08/27 08:13:38;;;;;;;11.43;0.95;;;;;;;19.81;35.40;101680.03;4986476;28;20030;-77
2022/08/27 08:16:04;;;;;;;9.07;0.50;;;;;;;20.09;35.05;101673.75;4982261;28;20044;-77
2022/08/27 08:18:29;;;;;;;8.23;0.55;;;;;;;20.32;35.37;101666.88;4996969;28;20037;-79
2022/08/27 08:21:00;;;;;;;3.35;0.22;;;;;;;20.28;35.42;101667.19;4995198;28;20041;-76
2022/08/27 08:23:27;;;;;;;3.40;0.40;;;;;;;19.80;36.02;101672.22;4998634;28;20128;-76
2022/08/27 08:25:52;;;;;;;4.32;0.30;;;;;;;19.73;36.18;101676.22;5000755;28;20030;-77
2022/08/27 08:28:17;;;;;;;5.85;0.60;;;;;;;19.87;35.63;101668.19;4959561;28;20048;-78
2022/08/27 08:30:43;;;;;;;6.78;0.30;;;;;;;19.21;36.87;101670.69;4983331;28;20406;-77
2022/08/27 08:33:09;;;;;;;2.38;0.40;;;;;;;19.03;36.78;101682.44;4999085;28;20153;-77
2022/08/27 08:35:38;;;;;;;2.85;0.35;;;;;;;18.79;37.66;101676.88;5003912;28;20042;-77
2022/08/27 08:38:03;;;;;;;2.70;0.55;;;;;;;18.52;37.59;101676.78;4984271;28;20633;-76
2022/08/27 08:40:42;;;;;;;3.28;0.50;;;;;;;19.08;36.97;101675.94;4999331;28;20053;-77
2022/08/27 08:43:19;;;;;;;5.15;0.30;;;;;;;19.18;36.12;101681.47;4979368;28;20716;-78
2022/08/27 08:45:46;;;;;;;5.90;0.30;;;;;;;19.26;35.62;101686.31;4977000;28;20648;-77
2022/08/27 08:48:21;;;;;;;4.53;0.45;;;;;;;19.09;36.48;101680.25;4988296;28;20041;-77
2022/08/27 08:51:12;;;;;;;7.88;0.60;;;;;;;19.11;37.42;101687.28;4985269;28;20041;-78
2022/08/27 08:53:53;;;;;;;7.95;0.68;;;;;;;19.08;37.12;101690.97;4975398;28;20042;-78
2022/08/27 08:56:45;;;;;;;7.67;0.40;;;;;;;19.85;36.32;101688.66;4999602;28;20048;-78
2022/08/27 08:59:47;;;;;;;7.90;0.60;;;;;;;21.44;32.58;101681.13;4982640;28;20152;-78
2022/08/27 09:02:14;;;;;;;5.57;0.30;;;;;;;20.19;34.93;101684.56;4974229;28;20045;-78
2022/08/27 09:04:41;;;;;;;3.80;0.80;;;;;;;18.95;37.65;101690.06;4988973;28;20045;-77
2022/08/27 09:07:25;;;;;;;3.63;0.20;;;;;;;18.89;37.74;101697.41;4974588;28;20050;-76
2022/08/27 09:10:09;;;;;;;9.63;0.55;;;;;;;18.92;37.53;101696.41;4990257;28;20030;-77
2022/08/27 09:12:34;;;;;;;5.82;0.60;;;;;;;19.06;36.80;101700.81;4990032;28;20045;-77
2022/08/27 09:15:13;;;;;;;8.25;0.40;;;;;;;19.01;37.25;101698.47;4997537;28;20095;-77
2022/08/27 09:17:40;;;;;;;2.50;0.25;;;;;;;19.08;36.64;101702.41;4995410;28;20049;-77
2022/08/27 09:20:07;;;;;;;5.45;0.73;;;;;;;19.04;36.80;101705.38;4979005;28;20165;-76
2022/08/27 09:23:00;;;;;;;4.80;0.30;;;;;;;18.93;36.81;101700.72;4973441;28;20029;-76
2022/08/27 09:25:32;;;;;;;5.40;0.40;;;;;;;19.25;36.61;101714.56;4982809;28;20141;-75
2022/08/27 09:28:03;;;;;;;1.98;0.20;;;;;;;19.42;35.62;101717.97;4994169;28;20050;-76
2022/08/27 09:30:32;;;;;;;1.63;0.35;;;;;;;19.68;35.83;101719.81;4993413;28;20485;-75
2022/08/27 09:33:00;;;;;;;5.78;0.20;;;;;;;20.56;33.41;101713.94;4979584;28;20471;-76
2022/08/27 09:35:33;;;;;;;4.45;0.15;;;;;;;21.47;30.96;101710.16;4997184;28;20046;-75
2022/08/27 09:38:01;;;;;;;3.33;0.75;;;;;;;21.92;30.12;101715.72;4993176;28;20046;-75
2022/08/27 09:40:26;;;;;;;3.72;0.25;;;;;;;22.50;29.98;101705.94;4999923;28;20030;-77
2022/08/27 09:42:55;;;;;;;5.40;0.30;;;;;;;21.54;31.13;101716.75;5013225;28;20626;-76
2022/08/27 09:45:25;;;;;;;4.60;0.65;;;;;;;21.65;29.73;101719.47;5000556;28;20033;-76
2022/08/27 09:48:01;;;;;;;3.03;0.35;;;;;;;22.66;28.99;101707.41;4975963;28;20184;-76
2022/08/27 09:50:40;;;;;;;3.92;0.52;;;;;;;23.11;29.07;101716.25;4993929;28;20022;-76
2022/08/27 09:53:18;;;;;;;2.13;0.20;;;;;;;21.84;30.21;101718.09;4988981;28;20045;-77
2022/08/27 09:55:48;;;;;;;8.48;0.40;;;;;;;21.58;31.53;101718.25;4982339;28;20087;-77
2022/08/27 09:58:23;;;;;;;4.40;0.20;;;;;;;22.05;32.38;101711.16;4983797;28;20044;-76
2022/08/27 10:01:05;;;;;;;2.92;0.30;;;;;;;22.34;29.44;101716.09;5007741;28;20061;-77
2022/08/27 10:03:32;;;;;;;4.00;0.47;;;;;;;21.62;30.73;101717.03;4997729;28;20042;-75
2022/08/27 10:05:58;;;;;;;3.95;0.43;;;;;;;20.63;32.09;101714.34;5000504;28;20038;-77
2022/08/27 10:08:27;;;;;;;4.75;0.40;;;;;;;21.35;32.13;101718.09;5001010;28;20092;-76
2022/08/27 10:11:04;;;;;;;2.97;0.20;;;;;;;22.25;30.35;101716.78;5000088;28;20041;-74
2022/08/27 10:14:00;;;;;;;3.22;0.38;;;;;;;22.24;29.31;101713.28;4991594;28;20665;-77
2022/08/27 10:16:46;;;;;;;3.17;0.17;;;;;;;22.50;28.73;101716.59;5009403;28;20124;-74
2022/08/27 10:19:30;;;;;;;2.97;0.22;;;;;;;21.28;30.74;101710.66;5006035;28;20080;-76
2022/08/27 10:22:09;;;;;;;4.43;0.28;;;;;;;22.07;29.86;101703.91;5000159;28;20042;-75
2022/08/27 10:25:01;;;;;;;3.53;0.28;;;;;;;22.74;29.11;101707.66;4998380;28;20044;-78
2022/08/27 10:27:52;;;;;;;3.78;0.38;;;;;;;22.23;28.94;101702.78;4996112;28;20086;-76
2022/08/27 10:30:23;;;;;;;7.15;0.28;;;;;;;21.84;30.01;101707.44;5000637;28;20121;-78
2022/08/27 10:33:01;;;;;;;5.35;0.20;;;;;;;22.07;30.25;101703.91;5001481;28;20164;-77
2022/08/27 10:36:03;;;;;;;6.13;0.40;;;;;;;21.79;30.26;101699.81;5001312;28;20049;-77
2022/08/27 10:38:38;;;;;;;4.18;0.30;;;;;;;21.01;31.41;101706.38;5002564;28;20038;-77
2022/08/27 10:41:11;;;;;;;8.80;0.77;;;;;;;21.67;31.95;101704.25;5000313;28;20044;-77
2022/08/27 10:43:36;;;;;;;3.50;0.30;;;;;;;22.80;30.43;101708.03;5004778;28;20038;-78
2022/08/27 10:46:45;;;;;;;3.95;0.70;;;;;;;22.60;29.65;101706.06;4969961;28;20040;-78
2022/08/27 10:49:20;;;;;;;1.73;0.52;;;;;;;21.81;32.55;101716.53;4977224;28;20068;-78
2022/08/27 10:52:05;;;;;;;5.15;0.50;;;;;;;21.79;32.26;101709.63;4971675;28;20507;-77
2022/08/27 10:54:45;;;;;;;7.38;0.75;;;;;;;20.80;33.52;101713.16;4954667;28;20063;-79
2022/08/27 10:57:32;;;;;;;5.05;0.30;;;;;;;20.82;33.25;101706.81;4989644;28;20049;-78
2022/08/27 11:00:10;;;;;;;1.00;0.10;;;;;;;21.39;32.36;101713.38;4986503;28;20827;-79
2022/08/27 11:02:54;;;;;;;5.18;0.50;;;;;;;22.14;30.60;101718.47;4987163;28;20050;-79
2022/08/27 11:05:25;;;;;;;2.10;0.20;;;;;;;22.43;30.98;101711.84;4972576;28;20041;-77
2022/08/27 11:08:16;;;;;;;5.03;0.20;;;;;;;23.17;29.43;101705.09;4977607;28;20048;-77
2022/08/27 11:10:53;;;;;;;4.87;0.20;;;;;;;22.64;29.77;101712.00;4988978;28;20481;-75
2022/08/27 11:13:38;;;;;;;9.35;0.30;;;;;;;22.14;30.20;101725.63;5001494;28;20284;-76
2022/08/27 11:16:42;;;;;;;5.32;0.70;;;;;;;21.33;31.77;101714.69;4986358;28;20045;-76
2022/08/27 11:19:25;;;;;;;5.75;0.60;;;;;;;21.64;32.39;101719.56;4975064;28;20072;-78
2022/08/27 11:21:59;;;;;;;8.18;0.75;;;;;;;21.70;31.84;101713.81;4992157;28;20370;-76
2022/08/27 11:24:37;;;;;;;3.30;0.43;;;;;;;22.72;29.66;101717.63;4981881;28;20546;-77
2022/08/27 11:27:06;;;;;;;6.05;0.75;;;;;;;22.20;29.89;101719.81;4980000;28;20120;-75
2022/08/27 11:29:39;;;;;;;4.53;0.50;;;;;;;22.58;30.34;101719.53;4997111;28;20564;-77
2022/08/27 11:32:17;;;;;;;1.92;0.35;;;;;;;22.85;29.63;101710.34;4984188;28;20050;-78
2022/08/27 11:34:49;;;;;;;4.07;0.30;;;;;;;22.08;30.01;101710.94;5001497;28;20042;-76
2022/08/27 11:37:44;;;;;;;5.20;0.68;;;;;;;22.55;30.06;101714.41;4986799;28;20038;-77
2022/08/27 11:40:36;;;;;;;4.68;0.60;;;;;;;22.14;29.59;101721.13;4982692;28;20049;-78
2022/08/27 11:43:08;;;;;;;1.65;0.10;;;;;;;21.91;30.15;101714.00;4984132;28;20041;-80